Suburb Maryland Fac, Maryland
Current Conditions -  °F | °C
As of 7:55 PM on Tuesday 21 Oct 2014 (Local Time) from KGAI Reporting Station
Overcast Overcast  
Wind Chill: 54°   Ceiling: 7000
Heat Index: 54°   Visibility: 10mi
Dew Point: 46°   Wind: 5mph
Humidity: 77%   Direction: 320°NW
Pressure: 29.91"   Gusts: NA
Location:  39.0876°N, 77.0578°W
Report Text: KGAI 212355Z 32004KT 10SM BKN070 OVC090 12/08 A2991 RMK AO1 10190 20120 401900070 52020
Loading
Personal Weather Stations






























Interactive Weather Map
Tropical Storm Tracking
New forecast layout! Learn more

10-Day Weather Forecast

Advertisements
Track Severe Weather on mobile